Union Park, Florida
Current Conditions -  °F | °C
As of 10:53 AM on Tuesday 21 Oct 2014 (Local Time) from KORL Reporting Station
Clear Clear  
Wind Chill: 78°   Ceiling: Unl
Heat Index: 80°   Visibility: 10mi
Dew Point: 72°   Wind: 0mph
Humidity: 81%   Direction: NA
Pressure: 29.98"   Gusts: NA
Location:  28.5912°N, 81.2456°W
Report Text: KORL 211453Z 00000KT 10SM CLR 26/22 A2998 RMK AO2 SLP156 T02560222 51008
Loading
Personal Weather Stations






























Interactive Weather Map
Tropical Storm Tracking
New forecast layout! Learn more

10-Day Weather Forecast

Advertisements
Track Severe Weather on mobile